createdAt,value
2018-01-31T01:52:37.761Z,0
2018-01-31T01:53:39.631Z,0
2018-01-31T01:54:41.420Z,0
2018-01-31T01:55:43.204Z,0
2018-01-31T01:56:45.056Z,0
2018-01-31T01:57:46.908Z,0
2018-01-31T01:58:48.760Z,0
2018-01-31T02:00:02.893Z,0
2018-01-31T02:01:04.747Z,0
2018-01-31T02:02:06.600Z,0
2018-01-31T02:03:08.451Z,0
2018-01-31T02:04:10.257Z,0
2018-01-31T02:05:12.054Z,0
2018-01-31T02:06:13.918Z,0
2018-01-31T02:07:15.769Z,0
2018-01-31T02:08:17.639Z,0
2018-01-31T02:09:31.757Z,0
2018-01-31T02:10:33.611Z,0
2018-01-31T02:11:35.467Z,0
2018-01-31T02:12:37.336Z,0
2018-01-31T02:13:39.146Z,0
2018-01-31T02:14:40.953Z,0
2018-01-31T02:15:42.805Z,0
2018-01-31T02:16:44.655Z,0
2018-01-31T02:17:46.504Z,0
2018-01-31T02:19:00.622Z,0
2018-01-31T02:20:02.481Z,0
2018-01-31T02:21:04.329Z,0
2018-01-31T02:22:06.186Z,0
2018-01-31T02:23:07.995Z,0
2018-01-31T02:24:09.805Z,0
2018-01-31T02:25:11.674Z,0
2018-01-31T02:26:13.540Z,0
2018-01-31T02:27:15.391Z,0
2018-01-31T02:28:29.512Z,0
2018-01-31T02:29:31.379Z,0
2018-01-31T02:30:33.231Z,0
2018-01-31T02:31:35.101Z,0
2018-01-31T02:32:36.909Z,0
2018-01-31T02:33:38.701Z,0
2018-01-31T02:34:40.547Z,0
2018-01-31T02:35:42.402Z,0
2018-01-31T02:36:44.273Z,0
2018-01-31T02:37:58.400Z,0
2018-01-31T02:39:00.286Z,0
2018-01-31T02:40:02.157Z,0
2018-01-31T02:41:04.028Z,0
2018-01-31T02:42:05.839Z,0
2018-01-31T02:43:07.627Z,0
2018-01-31T02:44:09.478Z,0
2018-01-31T02:45:11.342Z,0
2018-01-31T02:46:13.195Z,0
2018-01-31T02:47:27.344Z,0
2018-01-31T02:48:29.211Z,0
2018-01-31T02:49:31.081Z,0
2018-01-31T02:50:32.935Z,0
2018-01-31T02:51:34.741Z,0
2018-01-31T02:52:36.532Z,0
2018-01-31T02:53:38.399Z,0
2018-01-31T02:54:40.278Z,0
2018-01-31T02:55:42.146Z,0
2018-01-31T02:56:56.312Z,0
2018-01-31T02:57:58.165Z,0
2018-01-31T02:59:00.019Z,0
2018-01-31T03:00:01.900Z,0
2018-01-31T03:01:03.683Z,0
2018-01-31T03:02:05.489Z,0
2018-01-31T03:03:07.356Z,0
2018-01-31T03:04:09.201Z,0
2018-01-31T03:05:11.058Z,0
2018-01-31T03:06:25.174Z,0
2018-01-31T03:07:27.027Z,0
2018-01-31T03:08:28.878Z,0
2018-01-31T03:09:30.732Z,0
2018-01-31T03:10:32.525Z,0
2018-01-31T03:11:34.328Z,0
2018-01-31T03:12:36.176Z,0
2018-01-31T03:13:38.031Z,0
2018-01-31T03:14:39.881Z,0
2018-01-31T03:15:54.020Z,0
2018-01-31T03:16:55.886Z,0
2018-01-31T03:17:57.738Z,0
2018-01-31T03:18:59.608Z,0
2018-01-31T03:20:01.400Z,0
2018-01-31T03:21:03.206Z,0
2018-01-31T03:22:05.064Z,0
2018-01-31T03:23:06.936Z,0
2018-01-31T03:24:08.805Z,0
2018-01-31T03:25:22.945Z,0
2018-01-31T03:26:24.860Z,0
2018-01-31T03:27:26.661Z,0
2018-01-31T03:28:28.514Z,0
2018-01-31T03:29:30.299Z,0
2018-01-31T03:30:32.087Z,0
2018-01-31T03:31:33.944Z,0
2018-01-31T03:32:35.796Z,0
2018-01-31T03:33:37.648Z,0
2018-01-31T03:34:51.783Z,0
2018-01-31T03:35:53.658Z,0
2018-01-31T03:36:55.528Z,0
2018-01-31T03:37:57.395Z,0
2018-01-31T03:38:59.186Z,0
2018-01-31T03:40:00.993Z,0
2018-01-31T03:41:02.845Z,0
2018-01-31T03:42:04.693Z,0
2018-01-31T03:43:06.548Z,0
2018-01-31T03:44:20.666Z,0
2018-01-31T03:45:22.532Z,0
2018-01-31T03:46:24.380Z,0
2018-01-31T03:47:26.260Z,0
2018-01-31T03:48:28.061Z,0
2018-01-31T03:49:29.848Z,0
2018-01-31T03:50:31.703Z,0
2018-01-31T03:51:33.552Z,0
2018-01-31T03:52:35.403Z,0
2018-01-31T03:53:49.539Z,0
2018-01-31T03:54:51.396Z,0
2018-01-31T03:55:53.249Z,0
2018-01-31T03:56:55.119Z,0
2018-01-31T03:57:56.908Z,0
2018-01-31T03:58:58.693Z,0
2018-01-31T04:00:00.546Z,0
2018-01-31T04:01:02.418Z,0
2018-01-31T04:02:04.261Z,0
2018-01-31T04:03:18.434Z,0
2018-01-31T04:04:20.300Z,0
2018-01-31T04:05:22.152Z,0
2018-01-31T04:06:23.997Z,0
2018-01-31T04:07:25.785Z,0
2018-01-31T04:08:27.574Z,0
2018-01-31T04:09:29.446Z,0
2018-01-31T04:10:31.293Z,0
2018-01-31T04:11:33.140Z,0
2018-01-31T04:12:47.263Z,0
2018-01-31T04:13:49.116Z,0
2018-01-31T04:14:50.989Z,0
2018-01-31T04:15:52.855Z,0
2018-01-31T04:16:54.666Z,0
2018-01-31T04:17:56.470Z,0
2018-01-31T04:18:58.321Z,0
2018-01-31T04:20:00.188Z,0
2018-01-31T04:21:02.063Z,0
2018-01-31T04:22:16.254Z,0
2018-01-31T04:23:18.105Z,0
2018-01-31T04:24:19.976Z,0
2018-01-31T04:25:21.818Z,0
2018-01-31T04:26:23.606Z,0
2018-01-31T04:27:25.401Z,0
2018-01-31T04:28:27.266Z,0
2018-01-31T04:29:29.119Z,0
2018-01-31T04:30:30.986Z,0
2018-01-31T04:31:45.171Z,0
2018-01-31T04:32:47.023Z,0
2018-01-31T04:33:48.878Z,0
2018-01-31T04:34:50.724Z,0
2018-01-31T04:35:52.519Z,0
2018-01-31T04:36:54.327Z,0
2018-01-31T04:37:56.196Z,0
2018-01-31T04:38:58.046Z,0
2018-01-31T04:39:59.915Z,0
2018-01-31T04:41:14.055Z,0
2018-01-31T04:42:15.910Z,0
2018-01-31T04:43:17.761Z,0
2018-01-31T04:44:19.619Z,0
2018-01-31T04:45:21.424Z,0
2018-01-31T04:46:23.211Z,0
2018-01-31T04:47:25.057Z,0
2018-01-31T04:48:26.908Z,0
2018-01-31T04:49:28.764Z,0
2018-01-31T04:50:42.900Z,0
2018-01-31T04:51:44.754Z,0
2018-01-31T04:52:46.618Z,0
2018-01-31T04:53:48.490Z,0
2018-01-31T04:54:50.300Z,0
2018-01-31T04:55:52.110Z,0
2018-01-31T04:56:54.004Z,0
2018-01-31T04:57:55.831Z,0
2018-01-31T04:58:57.685Z,0
2018-01-31T05:00:11.803Z,0
2018-01-31T05:01:13.673Z,0
2018-01-31T05:02:15.524Z,0
2018-01-31T05:03:17.367Z,0
2018-01-31T05:04:19.161Z,0
2018-01-31T05:05:20.948Z,0
2018-01-31T05:06:22.821Z,0
2018-01-31T05:07:24.687Z,0
2018-01-31T05:08:26.540Z,0
2018-01-31T05:09:40.679Z,0
2018-01-31T05:10:42.530Z,0
2018-01-31T05:11:44.382Z,0
2018-01-31T05:12:46.251Z,0
2018-01-31T05:13:48.038Z,0
2018-01-31T05:14:49.833Z,0
2018-01-31T05:15:51.702Z,0
2018-01-31T05:16:53.548Z,0
2018-01-31T05:17:55.403Z,0
2018-01-31T05:19:09.523Z,0
2018-01-31T05:20:11.394Z,0
2018-01-31T05:21:13.263Z,0
2018-01-31T05:22:15.135Z,0
2018-01-31T05:23:16.947Z,0
2018-01-31T05:24:18.751Z,0
2018-01-31T05:25:20.597Z,0
2018-01-31T05:26:22.457Z,0
2018-01-31T05:27:24.324Z,0
2018-01-31T05:28:38.446Z,0
2018-01-31T05:29:40.322Z,0
2018-01-31T05:30:42.168Z,0
2018-01-31T05:31:44.037Z,0
2018-01-31T05:32:45.849Z,0
2018-01-31T05:33:47.656Z,0
2018-01-31T05:34:49.507Z,0
2018-01-31T05:35:51.373Z,0
2018-01-31T05:36:53.222Z,0
2018-01-31T05:38:07.364Z,0
2018-01-31T05:39:09.215Z,0
2018-01-31T05:40:11.068Z,0
2018-01-31T05:41:12.914Z,0
2018-01-31T05:42:14.709Z,0
2018-01-31T05:43:16.520Z,0
2018-01-31T05:44:18.384Z,0
2018-01-31T05:45:20.251Z,0
2018-01-31T05:46:22.099Z,0
2018-01-31T05:47:36.221Z,0
2018-01-31T05:48:38.084Z,0
2018-01-31T05:49:39.935Z,0
2018-01-31T05:50:41.810Z,0
2018-01-31T05:51:43.622Z,0
2018-01-31T05:52:45.429Z,0
2018-01-31T05:53:47.279Z,0
2018-01-31T05:54:49.128Z,0
2018-01-31T05:55:50.983Z,0
2018-01-31T05:57:05.124Z,0
2018-01-31T05:58:06.992Z,0
2018-01-31T05:59:08.840Z,0
2018-01-31T06:00:10.712Z,0
2018-01-31T06:01:12.527Z,0
2018-01-31T06:02:14.336Z,0
2018-01-31T06:03:16.210Z,0
2018-01-31T06:04:18.058Z,0
2018-01-31T06:05:19.908Z,0
2018-01-31T06:06:34.029Z,0
2018-01-31T06:07:35.879Z,0
2018-01-31T06:08:37.737Z,0
2018-01-31T06:09:39.611Z,4
2018-01-31T06:10:41.418Z,4
2018-01-31T06:11:43.211Z,0
2018-01-31T06:12:45.114Z,4
2018-01-31T06:13:46.946Z,4
2018-01-31T06:14:48.815Z,8
2018-01-31T06:16:02.986Z,8
2018-01-31T06:17:04.842Z,8
2018-01-31T06:18:06.713Z,12
2018-01-31T06:19:08.569Z,12
2018-01-31T06:20:10.379Z,16
2018-01-31T06:21:12.165Z,16
2018-01-31T06:22:14.019Z,16
2018-01-31T06:23:15.951Z,20
2018-01-31T06:24:17.825Z,20
2018-01-31T06:25:31.960Z,24
2018-01-31T06:26:33.818Z,28
2018-01-31T06:27:35.682Z,32
2018-01-31T06:28:37.563Z,40
2018-01-31T06:29:39.359Z,48
2018-01-31T06:30:41.144Z,52
2018-01-31T06:31:42.996Z,60
2018-01-31T06:32:44.870Z,72
2018-01-31T06:33:46.740Z,84
2018-01-31T06:35:00.870Z,92
2018-01-31T06:36:02.740Z,104
2018-01-31T06:37:04.587Z,108
2018-01-31T06:38:06.440Z,116
2018-01-31T06:39:08.235Z,120
2018-01-31T06:40:10.065Z,120
2018-01-31T06:41:11.921Z,120
2018-01-31T06:42:13.774Z,120
2018-01-31T06:43:15.645Z,128
2018-01-31T06:44:29.769Z,132
2018-01-31T06:45:31.644Z,132
2018-01-31T06:46:33.494Z,136
2018-01-31T06:47:35.346Z,140
2018-01-31T06:48:37.132Z,140
2018-01-31T06:49:38.925Z,144
2018-01-31T06:50:40.843Z,148
2018-01-31T06:51:42.679Z,156
2018-01-31T06:52:44.546Z,160
2018-01-31T06:53:58.668Z,172
2018-01-31T06:55:00.526Z,184
2018-01-31T06:56:02.382Z,196
2018-01-31T06:57:04.241Z,220
2018-01-31T06:58:06.056Z,248
2018-01-31T06:59:07.869Z,256
2018-01-31T07:00:09.780Z,260
2018-01-31T07:01:11.672Z,260
2018-01-31T07:02:13.537Z,276
2018-01-31T07:03:27.735Z,320
2018-01-31T07:04:29.591Z,360
2018-01-31T07:05:31.445Z,400
2018-01-31T07:06:33.358Z,432
2018-01-31T07:07:35.224Z,416
2018-01-31T07:08:36.995Z,428
2018-01-31T07:09:38.849Z,488
2018-01-31T07:10:40.725Z,568
2018-01-31T07:11:42.579Z,616
2018-01-31T07:12:56.683Z,660
2018-01-31T07:13:58.474Z,720
2018-01-31T07:15:00.281Z,768
2018-01-31T07:16:02.136Z,792
2018-01-31T07:17:03.949Z,816
2018-01-31T07:18:05.827Z,828
2018-01-31T07:19:07.680Z,840
2018-01-31T07:20:09.466Z,872
2018-01-31T07:21:11.275Z,896
2018-01-31T07:22:25.460Z,928
2018-01-31T07:23:27.335Z,908
2018-01-31T07:24:29.210Z,884
2018-01-31T07:25:31.066Z,888
2018-01-31T07:26:32.882Z,920
2018-01-31T07:27:34.696Z,940
2018-01-31T07:28:36.570Z,948
2018-01-31T07:29:38.401Z,948
2018-01-31T07:30:40.279Z,952
2018-01-31T07:31:54.419Z,996
2018-01-31T07:32:56.294Z,1080
2018-01-31T07:33:58.175Z,1228
2018-01-31T07:35:00.051Z,1456
2018-01-31T07:36:01.849Z,1720
2018-01-31T07:37:03.661Z,1952
2018-01-31T07:38:05.537Z,2172
2018-01-31T07:39:07.415Z,2336
2018-01-31T07:40:09.287Z,2464
2018-01-31T07:41:23.414Z,2644
2018-01-31T07:42:25.291Z,2692
2018-01-31T07:43:27.169Z,2616
2018-01-31T07:44:29.047Z,2520
2018-01-31T07:45:30.841Z,2428
2018-01-31T07:46:32.634Z,2388
2018-01-31T07:47:34.513Z,2380
2018-01-31T07:48:36.372Z,2404
2018-01-31T07:49:38.217Z,2400
2018-01-31T07:50:52.343Z,2364
2018-01-31T07:51:54.201Z,2348
2018-01-31T07:52:56.053Z,2380
2018-01-31T07:53:57.917Z,2412
2018-01-31T07:54:59.706Z,2436
2018-01-31T07:56:01.507Z,2456
2018-01-31T07:57:03.376Z,2460
2018-01-31T07:58:05.234Z,2448
2018-01-31T07:59:07.092Z,2452
2018-01-31T08:00:21.286Z,2540
2018-01-31T08:01:23.157Z,2612
2018-01-31T08:02:25.021Z,2736
2018-01-31T08:03:26.896Z,2852
2018-01-31T08:04:28.691Z,2956
2018-01-31T08:05:30.485Z,3048
2018-01-31T08:06:32.362Z,3132
2018-01-31T08:07:34.217Z,3236
2018-01-31T08:08:36.075Z,3332
2018-01-31T08:09:50.205Z,3420
2018-01-31T08:10:52.086Z,3520
2018-01-31T08:11:53.955Z,3692
2018-01-31T08:12:55.816Z,3924
2018-01-31T08:13:57.609Z,4128
2018-01-31T08:14:59.426Z,4228
2018-01-31T08:16:01.302Z,4344
2018-01-31T08:17:03.155Z,4412
2018-01-31T08:18:05.016Z,4508
2018-01-31T08:19:19.206Z,4776
2018-01-31T08:20:21.081Z,4800
2018-01-31T08:21:22.976Z,4808
2018-01-31T08:22:24.794Z,4820
2018-01-31T08:23:26.593Z,4916
2018-01-31T08:24:28.400Z,4972
2018-01-31T08:25:30.287Z,5032
2018-01-31T08:26:32.150Z,5096
2018-01-31T08:27:34.024Z,5128
2018-01-31T08:28:48.143Z,5080
2018-01-31T08:29:50.022Z,4984
2018-01-31T08:30:51.876Z,4944
2018-01-31T08:31:53.731Z,4928
2018-01-31T08:32:55.532Z,4876
2018-01-31T08:33:57.346Z,4816
2018-01-31T08:34:59.223Z,4740
2018-01-31T08:36:01.086Z,4712
2018-01-31T08:37:02.938Z,4700
2018-01-31T08:38:17.058Z,4724
2018-01-31T08:39:18.923Z,4764
2018-01-31T08:40:20.800Z,4824
2018-01-31T08:41:22.681Z,4876
2018-01-31T08:42:24.493Z,4944
2018-01-31T08:43:26.289Z,5052
2018-01-31T08:44:28.141Z,5184
2018-01-31T08:45:30.007Z,5340
2018-01-31T08:46:31.858Z,5460
2018-01-31T08:47:46.054Z,5612
2018-01-31T08:48:47.912Z,5592
2018-01-31T08:49:49.792Z,5544
2018-01-31T08:50:51.669Z,5448
2018-01-31T08:51:53.483Z,5304
2018-01-31T08:52:55.282Z,5128
2018-01-31T08:53:57.156Z,4996
2018-01-31T08:54:59.013Z,4820
2018-01-31T08:56:00.868Z,4612
2018-01-31T08:57:15.057Z,4548
2018-01-31T08:58:16.915Z,4524
2018-01-31T08:59:18.772Z,4600
2018-01-31T09:00:20.648Z,4724
2018-01-31T09:01:22.444Z,4840
2018-01-31T09:02:24.232Z,4924
2018-01-31T09:03:26.089Z,5016
2018-01-31T09:04:27.945Z,5064
2018-01-31T09:05:29.807Z,5088
2018-01-31T09:06:43.935Z,5104
2018-01-31T09:07:45.812Z,5148
2018-01-31T09:08:47.687Z,5260
2018-01-31T09:09:49.545Z,5416
2018-01-31T09:10:51.338Z,5508
2018-01-31T09:11:53.138Z,5612
2018-01-31T09:12:55.015Z,5700
2018-01-31T09:13:56.893Z,5816
2018-01-31T09:14:58.764Z,5852
2018-01-31T09:16:12.894Z,5856
2018-01-31T09:17:14.767Z,5896
2018-01-31T09:18:16.619Z,5900
2018-01-31T09:19:18.503Z,5940
2018-01-31T09:20:20.302Z,6060
2018-01-31T09:21:22.101Z,6332
2018-01-31T09:22:24.034Z,6628
2018-01-31T09:23:25.872Z,6876
2018-01-31T09:24:27.736Z,7160
2018-01-31T09:25:41.864Z,7340
2018-01-31T09:26:43.738Z,7492
2018-01-31T09:27:45.596Z,7664
2018-01-31T09:28:47.452Z,7696
2018-01-31T09:29:49.285Z,7612
2018-01-31T09:30:51.062Z,7468
2018-01-31T09:31:52.940Z,7456
2018-01-31T09:32:54.802Z,7440
2018-01-31T09:33:56.682Z,7428
2018-01-31T09:35:10.825Z,7512
2018-01-31T09:36:12.686Z,7516
2018-01-31T09:37:14.559Z,7592
2018-01-31T09:38:16.420Z,7652
2018-01-31T09:39:18.216Z,7716
2018-01-31T09:40:20.013Z,7688
2018-01-31T09:41:21.887Z,7692
2018-01-31T09:42:23.749Z,7652
2018-01-31T09:43:25.628Z,7776
2018-01-31T09:44:39.806Z,7808
2018-01-31T09:45:41.684Z,7880
2018-01-31T09:46:43.562Z,7880
2018-01-31T09:47:45.421Z,7864
2018-01-31T09:48:47.238Z,7796
2018-01-31T09:49:49.050Z,7716
2018-01-31T09:50:50.911Z,7592
2018-01-31T09:51:52.789Z,7428
2018-01-31T09:52:54.655Z,7236
2018-01-31T09:54:08.768Z,7060
2018-01-31T09:55:10.624Z,7000
2018-01-31T09:56:12.514Z,7028
2018-01-31T09:57:14.384Z,7044
2018-01-31T09:58:16.202Z,7072
2018-01-31T09:59:18.009Z,7096
2018-01-31T10:00:19.866Z,7136
2018-01-31T10:01:21.723Z,7228
2018-01-31T10:02:23.583Z,7356
2018-01-31T10:03:37.730Z,7492
2018-01-31T10:04:39.605Z,7712
2018-01-31T10:05:41.470Z,7928
2018-01-31T10:06:43.346Z,8032
2018-01-31T10:07:45.140Z,8044
2018-01-31T10:08:46.935Z,8132
2018-01-31T10:09:48.758Z,8204
2018-01-31T10:10:50.631Z,8224
2018-01-31T10:11:52.500Z,8132
2018-01-31T10:13:06.647Z,8136
2018-01-31T10:14:08.529Z,8220
2018-01-31T10:15:10.408Z,8408
2018-01-31T10:16:12.266Z,8624
2018-01-31T10:17:14.063Z,8740
2018-01-31T10:18:15.874Z,8760
2018-01-31T10:19:17.736Z,8892
2018-01-31T10:20:19.595Z,8996
2018-01-31T10:21:21.454Z,9000
2018-01-31T10:22:35.600Z,8940
2018-01-31T10:23:37.458Z,8884
2018-01-31T10:24:39.324Z,8744
2018-01-31T10:25:41.196Z,8476
2018-01-31T10:26:42.995Z,8192
2018-01-31T10:27:44.814Z,8184
2018-01-31T10:28:46.723Z,8412
2018-01-31T10:29:48.621Z,8656
2018-01-31T10:30:50.478Z,8796
2018-01-31T10:32:04.651Z,8836
2018-01-31T10:33:06.501Z,8756
2018-01-31T10:34:08.399Z,8736
2018-01-31T10:35:10.308Z,8684
2018-01-31T10:36:12.128Z,8688
2018-01-31T10:37:13.972Z,8844
2018-01-31T10:38:15.770Z,9336
2018-01-31T10:39:17.574Z,9808
2018-01-31T10:40:19.369Z,10080
2018-01-31T10:41:33.496Z,10200
2018-01-31T10:42:35.355Z,10300
2018-01-31T10:43:37.228Z,10348
2018-01-31T10:44:39.087Z,10084
2018-01-31T10:45:40.908Z,9460
2018-01-31T10:46:42.708Z,8940
2018-01-31T10:47:44.588Z,8396
2018-01-31T10:48:46.469Z,7688
2018-01-31T10:49:48.344Z,6952
2018-01-31T10:51:02.472Z,6200
2018-01-31T10:52:04.360Z,5852
2018-01-31T10:53:06.213Z,5784
2018-01-31T10:57:28.619Z,6684
2018-01-31T10:57:28.883Z,7980
2018-01-31T10:58:19.335Z,8480
2018-01-31T10:59:21.188Z,8888
2018-01-31T11:00:35.317Z,8984
2018-01-31T11:01:37.192Z,8872
2018-01-31T11:02:39.083Z,8844
2018-01-31T11:03:40.975Z,8796
2018-01-31T11:04:42.770Z,8816
2018-01-31T11:05:44.571Z,8948
2018-01-31T11:06:46.448Z,9348
2018-01-31T11:07:48.308Z,10012
2018-01-31T11:08:50.186Z,10292
2018-01-31T11:10:04.336Z,10156
2018-01-31T11:11:06.200Z,10144
2018-01-31T11:12:08.065Z,10176
2018-01-31T11:13:09.946Z,9924
2018-01-31T11:14:11.738Z,9800
2018-01-31T11:15:13.534Z,9808
2018-01-31T11:16:15.409Z,9716
2018-01-31T11:17:17.269Z,9552
2018-01-31T11:18:19.133Z,9456
2018-01-31T11:19:33.325Z,9124
2018-01-31T11:20:35.200Z,8796
2018-01-31T11:21:37.080Z,8628
2018-01-31T11:22:38.943Z,8608
2018-01-31T11:23:40.767Z,8640
2018-01-31T11:24:42.619Z,8516
2018-01-31T11:25:44.435Z,8608
2018-01-31T11:26:46.296Z,8788
2018-01-31T11:27:48.151Z,8396
2018-01-31T11:29:02.279Z,7860
2018-01-31T11:30:04.160Z,7604
2018-01-31T11:31:06.043Z,7740
2018-01-31T11:32:07.899Z,8112
2018-01-31T11:33:09.697Z,8724
2018-01-31T11:34:11.496Z,9308
2018-01-31T11:35:13.375Z,9412
2018-01-31T11:36:15.234Z,9872
2018-01-31T11:37:17.116Z,10028
2018-01-31T11:38:31.258Z,10024
2018-01-31T11:39:33.138Z,9992
2018-01-31T11:40:35.020Z,10308
2018-01-31T11:41:36.879Z,10140
2018-01-31T11:42:38.680Z,9628
2018-01-31T11:43:40.488Z,9044
2018-01-31T11:44:42.352Z,8504
2018-01-31T11:45:44.231Z,7964
2018-01-31T11:46:46.088Z,7476
2018-01-31T11:48:00.269Z,7144
2018-01-31T11:49:02.145Z,6860
2018-01-31T11:50:04.029Z,6876
2018-01-31T11:51:05.902Z,7068
2018-01-31T11:52:07.702Z,7356
2018-01-31T11:53:09.498Z,7580
2018-01-31T11:54:11.352Z,7572
2018-01-31T11:55:13.212Z,7620
2018-01-31T11:56:15.075Z,7780
2018-01-31T11:57:29.218Z,8124
2018-01-31T11:58:31.122Z,8520
2018-01-31T11:59:32.940Z,8652
2018-01-31T12:00:34.802Z,8228
2018-01-31T12:01:36.628Z,7324
2018-01-31T12:02:38.401Z,6196
2018-01-31T12:03:40.297Z,5580
2018-01-31T12:04:42.155Z,5704
2018-01-31T12:05:44.011Z,6364
2018-01-31T12:06:58.181Z,7072
2018-01-31T12:08:00.094Z,7728
2018-01-31T12:09:01.981Z,8448
2018-01-31T12:10:03.910Z,8868
2018-01-31T12:11:05.780Z,9092
2018-01-31T12:12:07.606Z,9252
2018-01-31T12:13:09.511Z,9436
2018-01-31T12:14:11.452Z,9264
2018-01-31T12:15:13.261Z,8928
2018-01-31T12:16:27.439Z,8436
2018-01-31T12:17:29.675Z,8152
2018-01-31T12:18:31.491Z,8512
2018-01-31T12:19:33.406Z,8780
2018-01-31T12:20:35.237Z,8340
2018-01-31T12:21:37.034Z,8048
2018-01-31T12:22:38.914Z,7812
2018-01-31T12:23:40.795Z,7652
2018-01-31T12:24:42.668Z,7500
2018-01-31T12:25:56.794Z,7076
2018-01-31T12:26:58.679Z,6672
2018-01-31T12:28:00.556Z,6164
2018-01-31T12:29:02.435Z,5876
2018-01-31T12:30:04.264Z,6008
2018-01-31T12:31:06.079Z,6168
2018-01-31T12:32:07.942Z,6212
2018-01-31T12:33:09.828Z,6264
2018-01-31T12:34:11.699Z,6036
2018-01-31T12:35:25.895Z,5996
2018-01-31T12:36:27.787Z,5900
2018-01-31T12:37:29.658Z,5892
2018-01-31T12:38:31.537Z,5900
2018-01-31T12:39:33.332Z,5940
2018-01-31T12:40:35.171Z,5604
2018-01-31T12:41:37.133Z,5716
2018-01-31T12:42:38.995Z,5392
2018-01-31T12:43:40.867Z,5112
2018-01-31T12:44:55.006Z,4784
2018-01-31T12:45:56.869Z,4416
2018-01-31T12:46:58.726Z,4452
2018-01-31T12:48:00.670Z,4468
2018-01-31T12:49:02.484Z,4452
2018-01-31T12:50:04.300Z,4536
2018-01-31T12:51:06.159Z,4588
2018-01-31T12:52:08.025Z,4748
2018-01-31T12:53:09.899Z,4780
2018-01-31T12:54:24.049Z,4788
2018-01-31T12:55:25.909Z,4972
2018-01-31T12:56:27.805Z,5108
2018-01-31T12:57:29.671Z,5048
2018-01-31T12:58:31.467Z,5044
2018-01-31T12:59:33.275Z,4880
2018-01-31T13:00:35.137Z,4744
2018-01-31T13:01:36.999Z,4800
2018-01-31T13:02:38.854Z,4868
2018-01-31T13:03:52.984Z,5096
2018-01-31T13:04:54.919Z,5208
2018-01-31T13:05:56.825Z,5112
2018-01-31T13:06:58.742Z,4992
2018-01-31T13:08:00.567Z,4984
2018-01-31T13:09:02.386Z,4936
2018-01-31T13:10:04.266Z,4640
2018-01-31T13:11:06.139Z,4400
2018-01-31T13:12:07.999Z,4324
2018-01-31T13:13:22.199Z,4352
2018-01-31T13:14:24.074Z,4388
2018-01-31T13:15:25.935Z,4428
2018-01-31T13:16:27.793Z,4352
2018-01-31T13:17:29.592Z,4252
2018-01-31T13:18:31.406Z,4352
2018-01-31T13:19:33.266Z,4604
2018-01-31T13:20:35.149Z,4632
2018-01-31T13:21:36.985Z,4684
2018-01-31T13:22:51.127Z,4688
2018-01-31T13:23:52.988Z,4652
2018-01-31T13:24:54.843Z,4776
2018-01-31T13:25:56.731Z,4908
2018-01-31T13:26:58.497Z,4920
2018-01-31T13:28:00.300Z,4864
2018-01-31T13:29:02.177Z,4828
2018-01-31T13:30:04.037Z,4756
2018-01-31T13:31:05.898Z,4632
2018-01-31T13:32:20.093Z,4684
2018-01-31T13:33:21.952Z,4800
2018-01-31T13:34:23.810Z,4684
2018-01-31T13:35:25.669Z,4528
2018-01-31T13:36:27.470Z,4440
2018-01-31T13:37:29.290Z,4368
2018-01-31T13:38:31.173Z,4532
2018-01-31T13:39:33.024Z,4756
2018-01-31T13:40:34.885Z,4920
2018-01-31T13:41:49.035Z,4908
2018-01-31T13:42:50.908Z,4972
2018-01-31T13:43:52.790Z,4988
2018-01-31T13:44:54.670Z,4912
2018-01-31T13:45:56.486Z,4744
2018-01-31T13:46:58.295Z,4536
2018-01-31T13:48:00.178Z,4332
2018-01-31T13:49:02.052Z,4256
2018-01-31T13:50:03.915Z,4128
2018-01-31T13:51:18.065Z,3864
2018-01-31T13:52:19.926Z,3848
2018-01-31T13:53:21.807Z,3912
2018-01-31T13:54:23.685Z,3924
2018-01-31T13:55:25.508Z,4024
2018-01-31T13:56:27.321Z,4120
2018-01-31T13:57:29.199Z,4104
2018-01-31T13:58:31.085Z,3956
2018-01-31T13:59:32.945Z,3836
2018-01-31T14:00:47.141Z,3740
2018-01-31T14:01:49.018Z,3656
2018-01-31T14:02:50.909Z,3564
2018-01-31T14:03:52.776Z,3564
2018-01-31T14:04:54.578Z,3480
2018-01-31T14:05:56.392Z,3328
2018-01-31T14:06:58.250Z,3392
2018-01-31T14:08:00.129Z,3232
2018-01-31T14:09:01.981Z,2976
2018-01-31T14:10:16.110Z,2812
2018-01-31T14:11:17.975Z,2720
2018-01-31T14:12:19.855Z,2568
2018-01-31T14:13:21.713Z,2416
2018-01-31T14:14:23.541Z,2256
2018-01-31T14:15:25.340Z,2192
2018-01-31T14:16:27.222Z,2196
2018-01-31T14:17:29.105Z,2000
2018-01-31T14:18:30.979Z,1980
2018-01-31T14:19:45.105Z,2160
2018-01-31T14:20:46.968Z,2376
2018-01-31T14:21:48.848Z,2472
2018-01-31T14:22:50.721Z,2332
2018-01-31T14:23:52.581Z,2232
2018-01-31T14:24:54.444Z,2024
2018-01-31T14:25:56.345Z,2076
2018-01-31T14:26:58.235Z,1972
2018-01-31T14:28:00.809Z,2040
2018-01-31T14:29:14.935Z,1912
2018-01-31T14:30:16.815Z,1960
2018-01-31T14:31:18.693Z,1940
2018-01-31T14:32:20.574Z,1900
2018-01-31T14:33:22.393Z,1908
2018-01-31T14:34:24.209Z,1852
2018-01-31T14:35:26.091Z,1980
2018-01-31T14:36:27.962Z,1888
2018-01-31T14:37:29.827Z,1960
2018-01-31T14:38:43.953Z,1960
2018-01-31T14:39:45.824Z,1816
2018-01-31T14:40:47.686Z,1716
2018-01-31T14:41:49.562Z,1836
2018-01-31T14:42:51.366Z,1772
2018-01-31T14:43:53.180Z,1872
2018-01-31T14:44:55.059Z,1880
2018-01-31T14:45:56.938Z,1916
2018-01-31T14:46:58.799Z,1956
2018-01-31T14:48:12.945Z,1976
2018-01-31T14:49:14.824Z,1976
2018-01-31T14:50:16.735Z,1928
2018-01-31T14:51:18.635Z,1908
2018-01-31T14:52:20.435Z,1808
2018-01-31T14:53:22.289Z,1792
2018-01-31T14:54:24.200Z,1856
2018-01-31T14:55:26.075Z,1888
2018-01-31T14:56:27.949Z,1860
2018-01-31T14:57:42.079Z,1800
2018-01-31T14:58:43.956Z,1768
2018-01-31T14:59:45.810Z,1696
2018-01-31T15:00:47.674Z,1616
2018-01-31T15:01:49.511Z,1496
2018-01-31T15:02:51.327Z,1368
2018-01-31T15:03:53.147Z,1284
2018-01-31T15:04:55.023Z,1252
2018-01-31T15:05:56.832Z,1208
2018-01-31T15:07:11.012Z,1176
2018-01-31T15:08:12.916Z,1204
2018-01-31T15:09:14.781Z,1252
2018-01-31T15:10:16.694Z,1264
2018-01-31T15:11:18.490Z,1200
2018-01-31T15:12:20.285Z,1064
2018-01-31T15:13:22.186Z,952
2018-01-31T15:14:23.995Z,904
2018-01-31T15:15:25.855Z,880
2018-01-31T15:16:40.081Z,824
2018-01-31T15:17:41.951Z,748
2018-01-31T15:18:43.812Z,688
2018-01-31T15:19:45.673Z,604
2018-01-31T15:20:47.489Z,528
2018-01-31T15:21:49.276Z,512
2018-01-31T15:22:51.134Z,500
2018-01-31T15:23:53.020Z,496
2018-01-31T15:24:54.915Z,488
2018-01-31T15:26:09.042Z,444
2018-01-31T15:27:10.919Z,392
2018-01-31T15:28:12.803Z,344
2018-01-31T15:29:14.656Z,312
2018-01-31T15:30:16.453Z,280
2018-01-31T15:31:18.268Z,240
2018-01-31T15:32:20.119Z,200
2018-01-31T15:33:21.995Z,184
2018-01-31T15:34:23.927Z,172
2018-01-31T15:35:38.076Z,156
2018-01-31T15:36:39.931Z,136
2018-01-31T15:37:41.843Z,112
2018-01-31T15:38:43.705Z,96
2018-01-31T15:39:45.502Z,92
2018-01-31T15:40:47.319Z,88
2018-01-31T15:41:49.382Z,84
2018-01-31T15:42:51.212Z,68
2018-01-31T15:43:53.086Z,56
2018-01-31T15:45:07.261Z,48
2018-01-31T15:46:09.113Z,44
2018-01-31T15:47:11.019Z,40
2018-01-31T15:48:12.895Z,36
2018-01-31T15:49:14.694Z,36
2018-01-31T15:50:16.502Z,32
2018-01-31T15:51:18.361Z,32
2018-01-31T15:52:20.282Z,32
2018-01-31T15:53:22.159Z,28
2018-01-31T15:54:36.341Z,24
2018-01-31T15:55:38.194Z,20
2018-01-31T15:56:40.052Z,24
2018-01-31T15:57:41.952Z,16
2018-01-31T15:58:43.790Z,16
2018-01-31T15:59:45.778Z,12
2018-01-31T16:00:47.639Z,12
2018-01-31T16:01:49.539Z,8
2018-01-31T16:02:51.415Z,8
2018-01-31T16:04:05.565Z,8
2018-01-31T16:05:07.420Z,4
2018-01-31T16:06:09.297Z,4
2018-01-31T16:07:11.223Z,4
2018-01-31T16:08:13.056Z,4
2018-01-31T16:09:14.854Z,8
2018-01-31T16:10:16.726Z,4
2018-01-31T16:11:18.601Z,4
2018-01-31T16:12:20.536Z,0
2018-01-31T16:13:34.686Z,4
2018-01-31T16:14:36.564Z,4
2018-01-31T16:15:38.439Z,0
2018-01-31T16:16:40.340Z,0
2018-01-31T16:17:42.162Z,0
2018-01-31T16:18:43.980Z,0
2018-01-31T16:19:45.864Z,0
2018-01-31T16:20:47.725Z,0
2018-01-31T16:21:49.589Z,0
2018-01-31T16:23:03.720Z,0
2018-01-31T16:24:05.594Z,0
2018-01-31T16:25:07.453Z,0
2018-01-31T16:26:09.290Z,0
2018-01-31T16:27:11.337Z,0
2018-01-31T16:28:13.159Z,0
2018-01-31T16:29:15.179Z,0
2018-01-31T16:30:17.012Z,0